Time;durP1;ratioP1;P1;durP2;ratioP2;P2;SDS_P1;SDS_P2;PMS_P1;PMS_P2;Temp;Humidity;BMP_temperature;BMP_pressure;BME280_temperature;BME280_humidity;BME280_pressure;Samples;Min_cycle;Max_cycle;Signal;HPM_P1;HPM_P2
2023/05/04 00:00:28;;;;;;;6.07;3.63;;;9.90;99.90;;;;;;5121221;28;20540;-80
2023/05/04 00:02:55;;;;;;;5.20;4.30;;;9.90;99.90;;;;;;5119138;28;20488;-81
2023/05/04 00:05:21;;;;;;;6.07;3.33;;;10.00;99.90;;;;;;5123257;28;20471;-80
2023/05/04 00:07:48;;;;;;;8.10;3.67;;;9.90;1.00;;;;;;5124773;28;20488;-81
2023/05/04 00:10:15;;;;;;;7.87;3.87;;;9.80;1.00;;;;;;5123451;28;20457;-81
2023/05/04 00:12:45;;;;;;;6.63;3.87;;;9.80;1.00;;;;;;5116652;28;21062;-80
2023/05/04 00:15:11;;;;;;;5.93;3.80;;;9.70;1.00;;;;;;5116640;28;20492;-80
2023/05/04 00:17:38;;;;;;;8.27;3.93;;;9.70;1.00;;;;;;5117911;28;20951;-79
2023/05/04 00:20:06;;;;;;;7.10;4.40;;;9.60;99.90;;;;;;5118110;28;20509;-81
2023/05/04 00:22:33;;;;;;;7.03;4.60;;;9.60;99.90;;;;;;5115318;28;20474;-80
2023/05/04 00:25:00;;;;;;;10.27;4.03;;;9.60;99.90;;;;;;5117147;28;20512;-81
2023/05/04 00:27:27;;;;;;;6.07;4.30;;;9.50;1.00;;;;;;5115192;28;21000;-80
2023/05/04 00:29:55;;;;;;;5.53;3.90;;;9.50;99.90;;;;;;5116098;28;20464;-80
2023/05/04 00:32:22;;;;;;;8.40;4.17;;;9.40;1.00;;;;;;5115919;28;20456;-79
2023/05/04 00:34:48;;;;;;;6.37;3.90;;;9.40;1.00;;;;;;5118507;28;20487;-80
2023/05/04 00:37:15;;;;;;;6.43;4.50;;;9.40;1.00;;;;;;5117026;28;20447;-80
2023/05/04 00:39:42;;;;;;;6.57;4.90;;;9.40;1.00;;;;;;5119101;28;20460;-81
2023/05/04 00:42:09;;;;;;;6.80;3.93;;;9.30;99.90;;;;;;5121997;28;20456;-80
2023/05/04 00:44:39;;;;;;;8.77;3.87;;;9.30;99.90;;;;;;5119408;28;20475;-81
2023/05/04 00:47:08;;;;;;;5.97;3.90;;;9.40;99.90;;;;;;5122028;28;20540;-80
2023/05/04 00:49:35;;;;;;;6.17;4.93;;;9.40;99.90;;;;;;5118901;28;20448;-79
2023/05/04 00:52:03;;;;;;;6.73;5.17;;;9.30;99.90;;;;;;5120923;28;20460;-79
2023/05/04 00:54:30;;;;;;;6.93;5.20;;;9.20;99.90;;;;;;5119010;28;20499;-81
2023/05/04 00:56:57;;;;;;;5.97;4.33;;;9.30;99.90;;;;;;5120372;28;20514;-80
2023/05/04 00:59:23;;;;;;;7.90;4.00;;;9.30;1.00;;;;;;5120248;28;20448;-80
2023/05/04 01:01:50;;;;;;;6.30;4.80;;;9.20;1.00;;;;;;5118241;28;20523;-80
2023/05/04 01:04:18;;;;;;;6.80;4.57;;;9.20;99.90;;;;;;5120839;28;20463;-80
2023/05/04 01:06:51;;;;;;;6.10;4.10;;;9.20;1.00;;;;;;5119337;28;20455;-81
2023/05/04 01:09:23;;;;;;;7.33;5.07;;;9.10;1.00;;;;;;5121247;28;20546;-79
2023/05/04 01:11:57;;;;;;;4.77;4.00;;;9.10;5.40;;;;;;5120444;28;20751;-78
2023/05/04 01:14:25;;;;;;;8.60;4.97;;;9.10;99.90;;;;;;5120281;28;20487;-82
2023/05/04 01:16:54;;;;;;;7.70;4.63;;;9.10;99.90;;;;;;5120458;28;20440;-81
2023/05/04 01:19:23;;;;;;;6.93;5.00;;;9.10;1.00;;;;;;5119162;28;20460;-81
2023/05/04 01:21:51;;;;;;;10.47;6.33;;;9.10;1.00;;;;;;5120894;28;20542;-79
2023/05/04 01:24:17;;;;;;;6.00;4.00;;;9.00;99.90;;;;;;5118156;28;20476;-79
2023/05/04 01:26:47;;;;;;;7.17;4.87;;;9.00;99.90;;;;;;5121281;28;20458;-80
2023/05/04 01:29:17;;;;;;;7.10;4.50;;;9.00;99.90;;;;;;5118414;27;20474;-81
2023/05/04 01:31:45;;;;;;;6.87;4.17;;;8.90;1.00;;;;;;5119120;28;20971;-81
2023/05/04 01:34:13;;;;;;;7.80;5.07;;;8.90;15.60;;;;;;5119988;28;20518;-79
2023/05/04 01:36:41;;;;;;;8.13;5.87;;;8.90;1.00;;;;;;5117807;28;20459;-78
2023/05/04 01:39:09;;;;;;;7.80;5.40;;;8.90;1.00;;;;;;5120242;28;20446;-80
2023/05/04 01:41:36;;;;;;;7.90;4.80;;;8.80;95.20;;;;;;5117163;28;20962;-80
2023/05/04 01:44:03;;;;;;;8.03;5.60;;;8.80;99.90;;;;;;5119165;28;20564;-79
2023/05/04 01:46:30;;;;;;;9.33;5.10;;;8.80;99.90;;;;;;5117680;28;20454;-78
2023/05/04 01:48:57;;;;;;;6.77;4.77;;;8.80;1.00;;;;;;5119233;28;20455;-79
2023/05/04 01:51:24;;;;;;;5.90;4.73;;;8.70;99.90;;;;;;5119884;28;20459;-81
2023/05/04 01:53:51;;;;;;;6.50;4.60;;;8.70;99.90;;;;;;5116561;28;20499;-80
2023/05/04 01:56:19;;;;;;;7.90;4.60;;;8.70;4.60;;;;;;5118403;28;20463;-78
2023/05/04 01:58:46;;;;;;;7.63;5.00;;;8.70;99.90;;;;;;5116351;28;20832;-80
2023/05/04 02:01:12;;;;;;;8.60;5.33;;;8.70;99.90;;;;;;5119491;28;20453;-79
2023/05/04 02:03:39;;;;;;;7.37;5.23;;;8.60;99.90;;;;;;5116966;28;20486;-81
2023/05/04 02:06:07;;;;;;;10.60;5.93;;;8.70;99.90;;;;;;5119740;28;20445;-80
2023/05/04 02:08:34;;;;;;;8.87;5.43;;;8.60;1.00;;;;;;5118663;28;20456;-80
2023/05/04 02:11:00;;;;;;;9.00;5.23;;;8.60;1.00;;;;;;5115480;28;20461;-80
2023/05/04 02:13:29;;;;;;;7.93;4.60;;;8.60;1.00;;;;;;5119334;28;20479;-82
2023/05/04 02:15:55;;;;;;;9.40;5.93;;;8.50;99.90;;;;;;5117034;27;20488;-81
2023/05/04 02:18:22;;;;;;;8.37;4.60;;;8.50;1.00;;;;;;5118793;28;20985;-81
2023/05/04 02:20:49;;;;;;;8.47;5.30;;;8.50;1.00;;;;;;5117571;28;20456;-79
2023/05/04 02:23:16;;;;;;;7.53;4.77;;;8.50;1.00;;;;;;5118571;28;20555;-81
2023/05/04 02:25:43;;;;;;;7.97;5.07;;;8.50;1.00;;;;;;5119602;28;20965;-80
2023/05/04 02:28:09;;;;;;;12.40;6.00;;;8.40;1.00;;;;;;5117160;28;20456;-79
2023/05/04 02:30:37;;;;;;;11.80;5.27;;;8.40;1.00;;;;;;5114088;28;20541;-82
2023/05/04 02:33:04;;;;;;;6.30;5.57;;;8.30;99.90;;;;;;5116899;28;20569;-79
2023/05/04 02:35:31;;;;;;;8.80;5.60;;;8.40;99.90;;;;;;5119403;28;21095;-79
2023/05/04 02:37:58;;;;;;;6.60;4.87;;;8.30;99.90;;;;;;5123934;27;20459;-80
2023/05/04 02:40:25;;;;;;;5.83;5.13;;;8.30;1.00;;;;;;5118370;27;20468;-80
2023/05/04 02:42:52;;;;;;;6.37;5.30;;;8.30;99.90;;;;;;5118078;27;20480;-80
2023/05/04 02:45:19;;;;;;;10.07;7.43;;;8.20;99.90;;;;;;5115886;28;20446;-82
2023/05/04 02:47:47;;;;;;;8.67;5.63;;;8.20;1.00;;;;;;5117598;28;20463;-80
2023/05/04 02:50:14;;;;;;;9.00;5.13;;;8.20;99.90;;;;;;5117030;28;20470;-81
2023/05/04 02:52:40;;;;;;;7.17;5.47;;;8.20;99.90;;;;;;5118275;28;20483;-81
2023/05/04 02:55:08;;;;;;;8.10;5.63;;;8.20;99.90;;;;;;5116895;28;20581;-81
2023/05/04 02:57:35;;;;;;;6.00;4.97;;;8.10;99.90;;;;;;5116956;27;20999;-80
2023/05/04 03:00:02;;;;;;;6.30;5.60;;;8.10;99.90;;;;;;5118625;28;20457;-81
2023/05/04 03:02:29;;;;;;;7.60;5.50;;;8.00;1.00;;;;;;5116450;28;20486;-82
2023/05/04 03:04:57;;;;;;;8.70;5.23;;;8.00;1.00;;;;;;5120587;28;20474;-81
2023/05/04 03:07:24;;;;;;;7.00;5.00;;;7.90;1.00;;;;;;5118969;28;20540;-82
2023/05/04 03:09:51;;;;;;;10.93;5.53;;;7.90;1.00;;;;;;5121498;28;20505;-80
2023/05/04 03:12:18;;;;;;;9.43;5.40;;;7.90;1.00;;;;;;5120524;28;20452;-82
2023/05/04 03:14:45;;;;;;;9.60;6.60;;;7.90;1.00;;;;;;5118420;28;20481;-82
2023/05/04 03:17:11;;;;;;;8.53;5.63;;;7.90;3.50;;;;;;5120238;28;20451;-82
2023/05/04 03:19:38;;;;;;;8.10;6.00;;;7.80;99.90;;;;;;5118677;28;20459;-80
2023/05/04 03:22:06;;;;;;;6.93;5.60;;;7.80;99.90;;;;;;5121215;28;20451;-81
2023/05/04 03:24:33;;;;;;;10.10;5.37;;;7.80;99.90;;;;;;5119054;28;20473;-83
2023/05/04 03:27:00;;;;;;;9.40;5.47;;;7.80;99.90;;;;;;5120535;28;20445;-80
2023/05/04 03:29:27;;;;;;;9.00;5.00;;;7.70;99.90;;;;;;5121137;28;20454;-82
2023/05/04 03:31:54;;;;;;;8.43;6.40;;;7.70;99.90;;;;;;5118761;28;20470;-81
2023/05/04 03:34:21;;;;;;;8.43;5.00;;;7.70;99.90;;;;;;5099711;28;20619;-83
2023/05/04 03:36:48;;;;;;;7.70;5.47;;;7.70;99.90;;;;;;5110462;28;20494;-82
2023/05/04 03:39:16;;;;;;;6.73;5.10;;;7.60;99.90;;;;;;5120499;28;20458;-83
2023/05/04 03:41:43;;;;;;;9.97;7.43;;;7.60;99.90;;;;;;5118527;28;20446;-82
2023/05/04 03:44:10;;;;;;;8.80;7.00;;;7.60;99.90;;;;;;5120176;28;20495;-81
2023/05/04 03:46:37;;;;;;;7.47;5.73;;;7.60;99.90;;;;;;5121929;28;20546;-81
2023/05/04 03:49:04;;;;;;;13.80;6.80;;;7.50;99.90;;;;;;5123398;28;20461;-79
2023/05/04 03:51:30;;;;;;;8.40;5.93;;;7.50;99.90;;;;;;5128246;28;20485;-79
2023/05/04 03:53:57;;;;;;;8.50;7.07;;;7.50;99.90;;;;;;5126353;28;20968;-79
2023/05/04 03:56:25;;;;;;;6.83;6.13;;;7.50;99.90;;;;;;5121639;28;20496;-81
2023/05/04 03:58:52;;;;;;;10.03;6.23;;;7.40;99.90;;;;;;5119828;28;20454;-80
2023/05/04 04:01:19;;;;;;;7.73;6.17;;;7.40;99.90;;;;;;5119725;28;20448;-79
2023/05/04 04:03:46;;;;;;;9.30;6.67;;;7.40;99.90;;;;;;5118141;28;20470;-82
2023/05/04 04:06:13;;;;;;;8.87;6.27;;;7.30;1.00;;;;;;5119688;28;20457;-78
2023/05/04 04:08:40;;;;;;;9.37;6.00;;;7.30;99.90;;;;;;5119102;28;20449;-80
2023/05/04 04:11:06;;;;;;;9.80;5.23;;;7.30;1.00;;;;;;5116698;28;20469;-79
2023/05/04 04:13:34;;;;;;;7.30;6.17;;;7.40;1.00;;;;;;5099564;22;20528;-79
2023/05/04 04:16:01;;;;;;;6.77;5.73;;;7.40;1.00;;;;;;5054406;28;20495;-79
2023/05/04 04:18:28;;;;;;;11.00;6.73;;;7.40;1.00;;;;;;5054382;28;20556;-80
2023/05/04 04:20:55;;;;;;;6.97;6.27;;;7.30;1.00;;;;;;5054986;28;20456;-80
2023/05/04 04:23:22;;;;;;;8.17;6.07;;;7.40;1.00;;;;;;5058058;28;20468;-80
2023/05/04 04:25:48;;;;;;;10.13;6.20;;;7.40;1.00;;;;;;5058655;28;20451;-81
2023/05/04 04:28:15;;;;;;;7.63;5.80;;;7.40;1.00;;;;;;5056322;28;20565;-79
2023/05/04 04:30:45;;;;;;;11.40;6.30;;;7.50;1.00;;;;;;5055253;28;20456;-80
2023/05/04 04:33:11;;;;;;;7.50;6.00;;;7.50;1.00;;;;;;5053956;28;20499;-79
2023/05/04 04:35:38;;;;;;;9.23;5.73;;;7.50;1.00;;;;;;5056866;28;20490;-79
2023/05/04 04:38:05;;;;;;;7.80;6.33;;;7.50;1.00;;;;;;5053108;28;20448;-78
2023/05/04 04:40:32;;;;;;;8.33;5.90;;;7.50;1.00;;;;;;5050043;28;20469;-79
2023/05/04 04:42:59;;;;;;;12.33;6.77;;;7.50;1.00;;;;;;5054683;28;20844;-79
2023/05/04 04:45:26;;;;;;;9.57;6.00;;;7.50;1.00;;;;;;5055766;28;20460;-80
2023/05/04 04:47:55;;;;;;;8.40;5.70;;;7.50;1.00;;;;;;5058702;28;20542;-80
2023/05/04 04:50:21;;;;;;;11.80;6.67;;;7.50;1.00;;;;;;5054615;28;20465;-80
2023/05/04 04:52:48;;;;;;;7.43;6.63;;;7.60;1.00;;;;;;5049532;28;20996;-79
2023/05/04 04:55:16;;;;;;;13.10;6.37;;;7.50;1.00;;;;;;5051057;28;20491;-79
2023/05/04 04:57:42;;;;;;;11.60;7.93;;;7.60;1.00;;;;;;5055789;28;20456;-80
2023/05/04 05:00:11;;;;;;;7.70;6.33;;;7.60;1.00;;;;;;5056317;28;20542;-79
2023/05/04 05:02:39;;;;;;;6.20;5.30;;;7.70;1.00;;;;;;5053618;28;20967;-79
2023/05/04 05:05:08;;;;;;;9.53;6.50;;;7.70;1.00;;;;;;5056067;28;20459;-79
2023/05/04 05:07:35;;;;;;;8.37;7.03;;;7.70;1.00;;;;;;5054642;28;20452;-79
2023/05/04 05:10:02;;;;;;;12.77;6.37;;;7.70;1.00;;;;;;5055726;28;20470;-79
2023/05/04 05:12:29;;;;;;;9.63;6.53;;;7.70;1.00;;;;;;5055904;28;20879;-80
2023/05/04 05:14:56;;;;;;;10.60;6.80;;;7.80;1.00;;;;;;5055076;28;20523;-79
2023/05/04 05:17:23;;;;;;;6.27;5.67;;;7.80;1.00;;;;;;5055753;28;20458;-80
2023/05/04 05:19:50;;;;;;;15.50;10.30;;;7.80;1.00;;;;;;5053369;28;20457;-79
2023/05/04 05:22:18;;;;;;;18.60;11.00;;;7.90;1.00;;;;;;5056175;28;20467;-79
2023/05/04 05:24:45;;;;;;;13.80;9.00;;;8.00;1.00;;;;;;5053585;28;20560;-78
2023/05/04 05:27:12;;;;;;;10.73;8.00;;;8.00;1.00;;;;;;5057776;28;20477;-80
2023/05/04 05:29:39;;;;;;;13.23;7.10;;;8.10;1.00;;;;;;5054797;28;20448;-79
2023/05/04 05:32:06;;;;;;;9.63;7.83;;;8.20;1.00;;;;;;5055411;28;20459;-79
2023/05/04 05:34:33;;;;;;;8.80;6.27;;;8.30;1.00;;;;;;5055435;28;20559;-80
2023/05/04 05:36:59;;;;;;;8.10;6.47;;;8.40;1.00;;;;;;5053476;28;20862;-80
2023/05/04 05:39:28;;;;;;;12.80;7.23;;;8.50;1.00;;;;;;5055489;28;20535;-79
2023/05/04 05:41:57;;;;;;;9.33;6.70;;;8.60;1.00;;;;;;5052259;28;20929;-80
2023/05/04 05:44:23;;;;;;;8.50;6.17;;;8.70;99.90;;;;;;5055627;28;20877;-80
2023/05/04 05:46:50;;;;;;;7.93;6.80;;;8.90;99.90;;;;;;5052270;28;20497;-80
2023/05/04 05:49:17;;;;;;;8.20;6.40;;;9.10;99.90;;;;;;5055620;28;20547;-82
2023/05/04 05:51:44;;;;;;;10.37;6.63;;;9.20;1.00;;;;;;5054916;28;20455;-81
2023/05/04 05:54:11;;;;;;;8.47;5.67;;;9.40;1.00;;;;;;5042838;28;20829;-82
2023/05/04 05:56:39;;;;;;;8.90;6.73;;;9.50;99.90;;;;;;5055035;28;20489;-81
2023/05/04 05:59:06;;;;;;;9.50;6.33;;;9.70;99.90;;;;;;5033969;28;20473;-81
2023/05/04 06:01:33;;;;;;;9.50;6.20;;;9.90;1.00;;;;;;5038306;28;20498;-82
2023/05/04 06:03:59;;;;;;;8.00;5.47;;;10.10;1.00;;;;;;5051922;28;20480;-83
2023/05/04 06:06:26;;;;;;;7.30;5.90;;;10.40;1.00;;;;;;5056235;28;20955;-82
2023/05/04 06:08:53;;;;;;;6.50;5.40;;;10.60;1.00;;;;;;5052483;28;20466;-81
2023/05/04 06:11:20;;;;;;;8.83;5.97;;;10.80;1.00;;;;;;5051319;28;20764;-82
2023/05/04 06:13:48;;;;;;;8.60;5.80;;;11.00;99.90;;;;;;5052636;28;20526;-82
2023/05/04 06:16:15;;;;;;;10.00;5.40;;;11.30;55.60;;;;;;5047632;28;20524;-82
2023/05/04 06:18:42;;;;;;;7.70;5.80;;;11.50;99.90;;;;;;5052059;28;20847;-82
2023/05/04 06:21:08;;;;;;;7.20;5.07;;;11.70;1.00;;;;;;5051202;28;20852;-82
2023/05/04 06:23:36;;;;;;;8.37;5.83;;;11.80;1.00;;;;;;5054284;28;20501;-82
2023/05/04 06:26:04;;;;;;;8.93;5.37;;;11.90;1.00;;;;;;5054153;28;20446;-81
2023/05/04 06:28:31;;;;;;;8.90;5.20;;;12.00;33.60;;;;;;5051231;28;20458;-82
2023/05/04 06:31:00;;;;;;;5.20;4.50;;;12.10;1.00;;;;;;5053095;28;20487;-82
2023/05/04 06:33:27;;;;;;;8.93;5.13;;;12.20;1.00;;;;;;5050321;28;20483;-81
2023/05/04 06:35:53;;;;;;;14.70;6.03;;;12.30;99.90;;;;;;5052517;28;20493;-81
2023/05/04 06:38:21;;;;;;;8.53;4.83;;;12.50;99.90;;;;;;5052024;28;20963;-81
2023/05/04 06:40:48;;;;;;;13.33;5.47;;;12.50;99.90;;;;;;5051613;28;20454;-81
2023/05/04 06:43:14;;;;;;;7.20;4.83;;;12.60;99.90;;;;;;5047124;28;20482;-81
2023/05/04 06:45:42;;;;;;;6.30;4.87;;;12.70;99.90;;;;;;5047431;28;20456;-81
2023/05/04 06:48:10;;;;;;;7.83;5.50;;;12.80;99.90;;;;;;5050113;28;20506;-81
2023/05/04 06:50:38;;;;;;;7.00;5.10;;;12.90;99.90;;;;;;5052792;28;20452;-81
2023/05/04 06:53:09;;;;;;;5.30;4.50;;;13.00;99.90;;;;;;5045889;28;20475;-82
2023/05/04 06:55:36;;;;;;;7.70;5.57;;;13.00;99.90;;;;;;5052826;28;20497;-81
2023/05/04 06:58:03;;;;;;;4.97;4.47;;;13.00;99.90;;;;;;5050886;28;20998;-80
2023/05/04 07:00:30;;;;;;;7.17;4.27;;;13.10;99.90;;;;;;5051220;28;20458;-81
2023/05/04 07:02:57;;;;;;;12.40;6.20;;;13.10;19.40;;;;;;5045634;28;21006;-81
2023/05/04 07:05:26;;;;;;;7.27;4.60;;;13.20;35.20;;;;;;5042901;28;20471;-81
2023/05/04 07:07:53;;;;;;;7.50;4.90;;;13.30;99.90;;;;;;5051778;28;20461;-81
2023/05/04 07:10:19;;;;;;;11.77;5.30;;;13.30;50.00;;;;;;5057175;28;20446;-81
2023/05/04 07:12:46;;;;;;;9.23;5.60;;;13.40;35.00;;;;;;5054510;28;20496;-81
2023/05/04 07:15:13;;;;;;;7.50;4.43;;;13.50;1.00;;;;;;5050957;28;20469;-82
2023/05/04 07:17:40;;;;;;;7.90;5.10;;;13.70;1.00;;;;;;5053992;28;20456;-79
2023/05/04 07:20:08;;;;;;;7.40;4.70;;;13.80;1.00;;;;;;5054763;28;20451;-80
2023/05/04 07:22:36;;;;;;;9.60;4.43;;;14.00;1.00;;;;;;5051401;28;20970;-82
2023/05/04 07:25:03;;;;;;;11.50;4.60;;;14.30;1.00;;;;;;5054452;28;20452;-83
2023/05/04 07:27:30;;;;;;;6.50;4.43;;;14.40;1.00;;;;;;5054868;28;20946;-81
2023/05/04 07:29:57;;;;;;;11.33;4.83;;;14.60;1.00;;;;;;5044645;28;20472;-82
2023/05/04 07:32:24;;;;;;;10.87;4.87;;;14.90;1.00;;;;;;5049618;28;20454;-80
2023/05/04 07:34:51;;;;;;;10.57;4.80;;;15.20;1.00;;;;;;5050921;28;20900;-82
2023/05/04 07:37:18;;;;;;;7.23;4.20;;;15.40;1.00;;;;;;5054777;28;20482;-80
2023/05/04 07:39:46;;;;;;;8.30;4.30;;;15.60;1.00;;;;;;5053577;28;20455;-81
2023/05/04 07:42:13;;;;;;;10.13;4.60;;;15.80;1.00;;;;;;5051053;28;20455;-82
2023/05/04 07:44:40;;;;;;;5.40;4.03;;;16.00;1.00;;;;;;5053146;28;20472;-83
2023/05/04 07:47:07;;;;;;;7.53;3.83;;;16.10;1.00;;;;;;5049209;28;20516;-82
2023/05/04 07:49:34;;;;;;;7.87;4.17;;;16.20;1.00;;;;;;5053380;28;20544;-82
2023/05/04 07:52:01;;;;;;;11.13;4.90;;;16.40;1.00;;;;;;5052489;28;20448;-81
2023/05/04 07:54:28;;;;;;;7.27;4.33;;;16.70;1.00;;;;;;5049985;28;20566;-81
2023/05/04 07:56:56;;;;;;;8.67;4.40;;;17.00;1.00;;;;;;5048185;28;20497;-82
2023/05/04 07:59:23;;;;;;;8.60;4.40;;;17.20;99.90;;;;;;5044650;28;20458;-82
2023/05/04 08:01:49;;;;;;;14.97;5.57;;;17.30;99.90;;;;;;5051664;28;20458;-81
2023/05/04 08:04:16;;;;;;;9.47;4.40;;;17.40;99.90;;;;;;5049218;28;20482;-82
2023/05/04 08:06:43;;;;;;;6.50;3.87;;;17.50;99.90;;;;;;5052724;28;20487;-82
2023/05/04 08:09:10;;;;;;;5.40;3.90;;;17.60;99.90;;;;;;5051969;28;20964;-82
2023/05/04 08:11:39;;;;;;;5.03;3.90;;;17.80;99.90;;;;;;5051207;28;20505;-83
2023/05/04 08:14:07;;;;;;;10.67;4.30;;;18.00;99.90;;;;;;5051557;28;20482;-82
2023/05/04 08:16:34;;;;;;;8.10;4.10;;;18.00;99.90;;;;;;5049554;28;20501;-82
2023/05/04 08:19:01;;;;;;;8.87;4.23;;;18.40;99.90;;;;;;5050207;28;20454;-83
2023/05/04 08:21:28;;;;;;;7.73;3.87;;;18.90;99.90;;;;;;5051598;28;20453;-83
2023/05/04 08:23:54;;;;;;;5.53;4.10;;;19.40;99.90;;;;;;5055131;28;20484;-83
2023/05/04 08:26:22;;;;;;;11.43;4.40;;;19.90;99.90;;;;;;5052392;28;20455;-83
2023/05/04 08:28:49;;;;;;;8.37;4.30;;;20.80;99.90;;;;;;5053734;28;20456;-83
2023/05/04 08:31:17;;;;;;;4.97;3.60;;;22.10;99.90;;;;;;5050461;28;20944;-83
2023/05/04 08:33:44;;;;;;;6.60;3.33;;;23.30;99.90;;;;;;5052434;28;20995;-82
2023/05/04 08:36:12;;;;;;;6.00;3.73;;;24.20;99.90;;;;;;5047738;28;20480;-83
2023/05/04 08:38:39;;;;;;;4.67;3.30;;;25.00;99.90;;;;;;5043118;28;20479;-83
2023/05/04 08:41:08;;;;;;;6.47;3.60;;;25.50;99.90;;;;;;5063150;28;20455;-83
2023/05/04 08:43:35;;;;;;;4.93;3.30;;;25.20;99.90;;;;;;5065487;28;20475;-83
2023/05/04 08:46:03;;;;;;;6.27;3.90;;;26.20;99.90;;;;;;5054820;28;20439;-83
2023/05/04 08:48:33;;;;;;;7.30;3.73;;;26.50;99.90;;;;;;5053461;28;20510;-82
2023/05/04 08:51:03;;;;;;;4.73;3.60;;;27.80;99.90;;;;;;5054737;28;20451;-83
2023/05/04 08:53:31;;;;;;;4.63;3.30;;;26.80;99.90;;;;;;5060548;28;20502;-83
2023/05/04 08:56:02;;;;;;;5.70;3.60;;;27.20;99.90;;;;;;5058791;28;20515;-82
2023/05/04 08:58:30;;;;;;;6.20;3.10;;;27.50;99.90;;;;;;5055969;28;20460;-84
2023/05/04 09:00:58;;;;;;;4.87;3.30;;;27.70;99.90;;;;;;5058744;28;20448;-84
2023/05/04 09:03:25;;;;;;;5.03;3.40;;;27.90;99.90;;;;;;5075664;28;20462;-84
2023/05/04 09:05:54;;;;;;;5.43;3.07;;;28.30;99.90;;;;;;5076624;28;20535;-83
2023/05/04 09:08:21;;;;;;;6.53;3.03;;;29.00;99.90;;;;;;5079863;28;20451;-83
2023/05/04 09:10:48;;;;;;;7.60;2.80;;;29.20;99.90;;;;;;5075350;28;20451;-83
2023/05/04 09:13:14;;;;;;;8.30;3.30;;;30.10;99.90;;;;;;5059862;28;20488;-84
2023/05/04 09:15:42;;;;;;;8.40;3.30;;;30.90;99.90;;;;;;5059629;28;20888;-84
2023/05/04 09:18:09;;;;;;;4.10;2.90;;;31.40;99.90;;;;;;5052595;28;20996;-84
2023/05/04 09:20:45;;;;;;;3.37;2.70;;;30.70;99.90;;;;;;5058810;28;20892;-84
2023/05/04 09:23:15;;;;;;;3.43;2.57;;;30.80;99.90;;;;;;5056900;28;20468;-83
2023/05/04 09:25:49;;;;;;;3.40;2.80;;;30.30;99.90;;;;;;5053669;28;20522;-83
2023/05/04 09:28:17;;;;;;;3.50;2.60;;;30.40;99.90;;;;;;5060845;28;20831;-83
2023/05/04 09:30:44;;;;;;;7.20;3.17;;;30.60;99.90;;;;;;5060020;28;20491;-83
2023/05/04 09:33:11;;;;;;;4.80;2.90;;;31.00;99.90;;;;;;5058095;28;20554;-83
2023/05/04 09:36:04;;;;;;;4.33;3.10;;;31.00;99.90;;;;;;5056429;28;20448;-83
2023/05/04 09:38:32;;;;;;;6.00;3.37;;;31.60;99.90;;;;;;5050428;28;20444;-83
2023/05/04 09:40:59;;;;;;;4.70;2.90;;;31.80;99.90;;;;;;5054117;28;21017;-83
2023/05/04 09:43:41;;;;;;;4.00;2.97;;;31.70;99.90;;;;;;5059180;28;20488;-82
2023/05/04 09:46:17;;;;;;;3.50;3.20;;;32.50;99.90;;;;;;5059502;28;21013;-83
2023/05/04 09:48:52;;;;;;;4.90;2.60;;;32.60;99.90;;;;;;5066763;28;20448;-82
2023/05/04 09:51:26;;;;;;;3.77;2.80;;;32.90;99.90;;;;;;5066005;28;20444;-83
2023/05/04 09:53:54;;;;;;;4.00;2.53;;;33.90;99.90;;;;;;5065270;28;20511;-83
2023/05/04 09:56:31;;;;;;;5.00;2.97;;;35.20;99.90;;;;;;5058881;28;20527;-83
2023/05/04 09:58:58;;;;;;;8.03;3.43;;;35.60;99.90;;;;;;5059038;28;20503;-83
2023/05/04 10:01:28;;;;;;;3.60;2.90;;;34.80;99.90;;;;;;5054979;28;20440;-82
2023/05/04 10:03:55;;;;;;;5.03;2.90;;;34.50;99.90;;;;;;5054723;28;20472;-83
2023/05/04 10:06:23;;;;;;;6.63;3.80;;;35.50;99.90;;;;;;5053428;28;20436;-83
2023/05/04 10:08:51;;;;;;;4.33;3.93;;;36.10;99.90;;;;;;5049428;28;20462;-82
2023/05/04 10:11:20;;;;;;;4.63;3.30;;;35.40;99.90;;;;;;5052649;28;20451;-83
2023/05/04 10:13:48;;;;;;;6.70;2.87;;;34.20;99.90;;;;;;5066670;22;20506;-80
2023/05/04 10:16:36;;;;;;;4.23;2.67;;;34.90;99.90;;;;;;5073554;28;20453;-83
2023/05/04 10:19:29;;;;;;;3.57;3.27;;;36.10;99.90;;;;;;5072977;28;20458;-83
2023/05/04 10:22:12;;;;;;;4.33;3.27;;;36.10;99.90;;;;;;5075188;28;20455;-82
2023/05/04 10:25:04;;;;;;;5.30;3.30;;;36.70;99.90;;;;;;5075979;28;20471;-82
2023/05/04 10:27:46;;;;;;;3.70;2.70;;;36.90;99.90;;;;;;5029616;28;20455;-83
2023/05/04 10:30:15;;;;;;;2.90;2.20;;;35.20;99.90;;;;;;5075385;28;20473;-82
2023/05/04 10:32:42;;;;;;;4.67;2.40;;;36.10;99.90;;;;;;5074468;28;20893;-80
2023/05/04 10:35:13;;;;;;;4.90;2.90;;;36.10;99.90;;;;;;5075419;28;20982;-80
2023/05/04 10:37:53;;;;;;;3.50;2.70;;;36.30;99.90;;;;;;5075957;28;20475;-80
2023/05/04 10:40:20;;;;;;;5.30;2.80;;;37.40;99.90;;;;;;5073530;28;20526;-82
2023/05/04 10:42:48;;;;;;;7.20;2.40;;;37.20;99.90;;;;;;5075629;28;20455;-82
2023/05/04 10:45:15;;;;;;;3.83;2.90;;;37.70;99.90;;;;;;5076349;28;20542;-81
2023/05/04 10:47:42;;;;;;;3.73;2.40;;;37.50;99.90;;;;;;5075723;28;20546;-81
2023/05/04 10:50:13;;;;;;;5.93;3.07;;;36.30;99.90;;;;;;5083311;28;20453;-82
2023/05/04 10:52:46;;;;;;;3.33;2.57;;;36.90;99.90;;;;;;5076598;28;20462;-84
2023/05/04 10:55:14;;;;;;;5.63;2.50;;;37.30;99.90;;;;;;5075872;28;20479;-82
2023/05/04 10:57:49;;;;;;;3.87;2.63;;;37.80;99.90;;;;;;5071971;28;21376;-82
2023/05/04 11:00:17;;;;;;;3.80;2.73;;;37.90;99.90;;;;;;5071782;28;21033;-84
2023/05/04 11:02:45;;;;;;;4.03;3.30;;;38.30;99.90;;;;;;5074670;28;20526;-83
2023/05/04 11:05:16;;;;;;;3.70;2.80;;;39.20;99.90;;;;;;5075615;28;20471;-81
2023/05/04 11:07:44;;;;;;;4.67;3.10;;;38.70;99.90;;;;;;5074099;28;20841;-81
2023/05/04 11:10:24;;;;;;;5.10;3.10;;;39.40;99.90;;;;;;5074274;28;20451;-81
2023/05/04 11:12:52;;;;;;;3.90;3.30;;;39.80;99.90;;;;;;5073108;28;20465;-82
2023/05/04 11:15:21;;;;;;;4.00;3.60;;;38.80;99.90;;;;;;5074247;28;20558;-82
2023/05/04 11:17:49;;;;;;;4.73;3.63;;;38.40;99.90;;;;;;5073909;28;20479;-82
2023/05/04 11:20:23;;;;;;;3.53;2.93;;;38.40;99.90;;;;;;5074446;28;20502;-82
2023/05/04 11:22:50;;;;;;;3.20;2.83;;;37.90;99.90;;;;;;5069917;28;20558;-81
2023/05/04 11:25:26;;;;;;;6.00;3.03;;;37.30;99.90;;;;;;5073060;28;20844;-83
2023/05/04 11:27:54;;;;;;;3.10;2.70;;;38.20;99.90;;;;;;5054342;28;20436;-83
2023/05/04 11:30:21;;;;;;;3.60;2.37;;;38.10;99.90;;;;;;5058326;28;20459;-82
2023/05/04 11:32:48;;;;;;;4.90;2.77;;;38.50;99.90;;;;;;5073316;28;21014;-82
2023/05/04 11:35:19;;;;;;;4.27;2.77;;;39.00;99.90;;;;;;5073182;28;20475;-82
2023/05/04 11:37:48;;;;;;;3.73;2.80;;;38.40;99.90;;;;;;5073328;28;20493;-82
2023/05/04 11:40:18;;;;;;;2.73;2.30;;;38.80;99.90;;;;;;5073695;28;20954;-80
2023/05/04 11:42:45;;;;;;;2.90;2.10;;;38.90;99.90;;;;;;5074949;28;20877;-81
2023/05/04 11:45:17;;;;;;;4.30;2.37;;;39.40;99.90;;;;;;5073299;28;20483;-83
2023/05/04 11:47:45;;;;;;;2.70;2.17;;;39.50;99.90;;;;;;5071345;28;20443;-82
2023/05/04 11:50:13;;;;;;;4.30;2.87;;;39.50;99.90;;;;;;5071310;28;20451;-84
2023/05/04 11:52:43;;;;;;;3.63;2.50;;;39.40;99.90;;;;;;5073249;28;20508;-83
2023/05/04 11:55:10;;;;;;;3.13;2.10;;;40.90;99.90;;;;;;5073344;28;20485;-81
2023/05/04 11:57:38;;;;;;;5.70;2.63;;;41.20;99.90;;;;;;5074228;28;20576;-82
2023/05/04 12:00:07;;;;;;;4.20;2.30;;;41.20;99.90;;;;;;5074404;28;20454;-82
2023/05/04 12:02:35;;;;;;;2.77;2.20;;;41.90;99.90;;;;;;5079301;28;21210;-84
2023/05/04 12:05:03;;;;;;;3.23;2.10;;;42.80;99.90;;;;;;5076821;28;20489;-82
2023/05/04 12:07:35;;;;;;;2.90;2.10;;;42.60;99.90;;;;;;5088325;28;20614;-83
2023/05/04 12:10:02;;;;;;;3.00;2.17;;;41.50;99.90;;;;;;5078515;28;20482;-82
2023/05/04 12:12:38;;;;;;;3.50;2.33;;;41.00;99.90;;;;;;5079899;28;20442;-82
2023/05/04 12:15:09;;;;;;;3.30;2.80;;;40.70;99.90;;;;;;5075447;28;20484;-79
2023/05/04 12:17:44;;;;;;;4.63;2.47;;;40.70;99.90;;;;;;5077811;28;20470;-82
2023/05/04 12:20:22;;;;;;;3.17;2.40;;;41.10;99.90;;;;;;5077208;28;20542;-81
2023/05/04 12:22:49;;;;;;;5.20;2.80;;;41.60;99.90;;;;;;5077384;28;20447;-78
2023/05/04 12:25:18;;;;;;;3.40;2.40;;;41.90;99.90;;;;;;5077741;28;20982;-83
2023/05/04 12:27:45;;;;;;;3.30;2.40;;;41.30;99.90;;;;;;5083208;28;20446;-80
2023/05/04 12:30:13;;;;;;;2.37;1.93;;;40.90;99.90;;;;;;5079013;28;20459;-82
2023/05/04 12:32:42;;;;;;;3.53;2.17;;;41.20;99.90;;;;;;5072924;28;21000;-83
2023/05/04 12:35:11;;;;;;;4.07;2.30;;;42.30;99.90;;;;;;5071186;28;20533;-82
2023/05/04 12:37:37;;;;;;;3.97;2.20;;;43.50;99.90;;;;;;5074400;28;20902;-84
2023/05/04 12:40:06;;;;;;;4.70;2.20;;;44.60;99.90;;;;;;5078998;28;20455;-82
2023/05/04 12:42:33;;;;;;;4.50;2.10;;;44.00;99.90;;;;;;5078130;28;20459;-81
2023/05/04 12:44:59;;;;;;;3.40;2.70;;;43.00;99.90;;;;;;5072345;28;20476;-81
2023/05/04 12:47:26;;;;;;;5.50;3.03;;;42.80;99.90;;;;;;5071454;28;20553;-82
2023/05/04 12:49:54;;;;;;;6.40;3.37;;;42.40;99.90;;;;;;5078227;28;20445;-83
2023/05/04 12:52:22;;;;;;;3.40;1.80;;;42.50;99.90;;;;;;5078068;28;20480;-81
2023/05/04 12:54:49;;;;;;;4.67;2.40;;;43.20;99.90;;;;;;5079407;28;20561;-82
2023/05/04 12:57:16;;;;;;;6.30;1.73;;;43.60;99.90;;;;;;5082141;28;20508;-82